Time,TemperatureF,DewpointF,PressureIn,WindDirection,WindDirectionDegrees,WindSpeedMPH,WindSpeedGustMPH,Humidity,HourlyPrecipIn,Conditions,Clouds,dailyrainin,SoftwareType,DateUTC
2014-01-01 00:01:00,32.5,29.4,30.30,NE,52,0.0,0.0,88,0.00,,---,0.00,VWS V14.01,2014-01-01 06:01:00,
2014-01-01 00:06:00,32.5,29.4,30.30,NE,52,0.0,0.0,88,0.00,,---,0.00,VWS V14.01,2014-01-01 06:06:00,
2014-01-01 00:11:00,32.3,29.1,30.30,NE,52,0.0,0.0,88,0.00,,---,0.00,VWS V14.01,2014-01-01 06:11:00,
2014-01-01 00:14:00,32.2,29.0,30.30,NE,52,0.0,0.0,88,0.00,,---,0.00,VWS V14.01,2014-01-01 06:14:00,
2014-01-01 00:19:00,32.1,29.0,30.30,NE,52,0.0,0.0,88,0.00,,---,0.00,VWS V14.01,2014-01-01 06:19:00,
2014-01-01 00:24:00,31.9,28.8,30.30,NE,52,0.0,0.0,88,0.00,,---,0.00,VWS V14.01,2014-01-01 06:24:00,
2014-01-01 00:29:00,31.9,28.8,30.30,NE,52,0.0,0.0,88,0.00,,---,0.00,VWS V14.01,2014-01-01 06:29:00,
2014-01-01 00:34:00,31.8,28.7,30.30,NE,52,0.0,0.0,88,0.00,,---,0.00,VWS V14.01,2014-01-01 06:34:00,
2014-01-01 00:39:00,31.8,28.7,30.30,NE,52,0.0,0.0,88,0.00,,---,0.00,VWS V14.01,2014-01-01 06:39:00,
2014-01-01 00:44:00,31.9,28.8,30.30,NE,52,0.0,0.0,88,0.00,,---,0.00,VWS V14.01,2014-01-01 06:44:00,
2014-01-01 00:49:00,32.0,29.1,30.30,NE,52,0.0,0.0,89,0.00,,---,0.00,VWS V14.01,2014-01-01 06:49:00,
2014-01-01 00:54:00,31.9,29.0,30.30,NE,52,0.0,0.0,89,0.00,,---,0.00,VWS V14.01,2014-01-01 06:54:00,
2014-01-01 00:55:00,31.9,29.0,30.30,NE,52,0.0,0.0,89,0.00,,---,0.00,VWS V14.01,2014-01-01 06:55:00,
2014-01-01 01:00:00,31.7,28.8,30.28,NE,52,0.0,0.0,89,0.00,,---,0.00,VWS V14.01,2014-01-01 07:00:00,
2014-01-01 01:05:00,31.7,28.8,30.28,NE,52,0.0,0.0,89,0.00,,---,0.00,VWS V14.01,2014-01-01 07:05:00,
2014-01-01 01:10:00,31.7,28.8,30.28,NE,52,0.0,0.0,89,0.00,,---,0.00,VWS V14.01,2014-01-01 07:10:00,
2014-01-01 01:15:00,31.6,28.7,30.28,NE,52,0.0,0.0,89,0.00,,---,0.00,VWS V14.01,2014-01-01 07:15:00,
2014-01-01 01:20:00,31.6,28.7,30.28,NE,52,0.0,0.0,89,0.00,,---,0.00,VWS V14.01,2014-01-01 07:20:00,
2014-01-01 01:22:00,31.6,28.7,30.28,NE,52,0.0,0.0,89,0.00,,---,0.00,VWS V14.01,2014-01-01 07:22:00,
2014-01-01 01:27:00,31.4,28.5,30.28,NE,52,0.0,0.0,89,0.00,,---,0.00,VWS V14.01,2014-01-01 07:27:00,
2014-01-01 01:32:00,31.4,28.5,30.28,NE,52,0.0,0.0,89,0.00,,---,0.00,VWS V14.01,2014-01-01 07:32:00,
2014-01-01 01:37:00,31.5,28.6,30.28,NE,52,0.0,0.0,89,0.00,,---,0.00,VWS V14.01,2014-01-01 07:37:00,
2014-01-01 01:42:00,31.4,28.5,30.28,NE,52,0.0,0.0,89,0.00,,---,0.00,VWS V14.01,2014-01-01 07:42:00,
2014-01-01 01:47:00,31.5,28.6,30.27,NE,52,0.0,0.0,89,0.00,,---,0.00,VWS V14.01,2014-01-01 07:47:00,
2014-01-01 01:52:00,31.5,28.6,30.27,NE,52,0.0,0.0,89,0.00,,---,0.00,VWS V14.01,2014-01-01 07:52:00,
2014-01-01 01:57:00,31.4,28.5,30.27,NE,52,0.0,0.0,89,0.00,,---,0.00,VWS V14.01,2014-01-01 07:57:00,
2014-01-01 02:00:00,31.4,28.5,30.27,NE,52,0.0,0.0,89,0.00,,---,0.00,VWS V14.01,2014-01-01 08:00:00,
2014-01-01 02:05:00,31.4,28.5,30.27,NE,52,0.0,0.0,89,0.00,,---,0.00,VWS V14.01,2014-01-01 08:05:00,
2014-01-01 02:10:00,31.4,28.5,30.27,NE,52,0.0,0.0,89,0.00,,---,0.00,VWS V14.01,2014-01-01 08:10:00,
2014-01-01 02:15:00,31.4,28.5,30.27,NE,52,0.0,0.0,89,0.00,,---,0.00,VWS V14.01,2014-01-01 08:15:00,
2014-01-01 02:20:00,31.3,28.4,30.27,NE,52,0.0,0.0,89,0.00,,---,0.00,VWS V14.01,2014-01-01 08:20:00,
2014-01-01 02:25:00,31.4,28.5,30.27,NE,52,0.0,0.0,89,0.00,,---,0.00,VWS V14.01,2014-01-01 08:25:00,
2014-01-01 02:30:00,31.5,28.6,30.27,NE,52,0.0,0.0,89,0.00,,---,0.00,VWS V14.01,2014-01-01 08:30:00,
2014-01-01 02:35:00,31.4,28.5,30.27,NE,52,0.0,0.0,89,0.00,,---,0.00,VWS V14.01,2014-01-01 08:35:00,
2014-01-01 02:40:00,31.4,28.5,30.27,NE,52,0.0,0.0,89,0.00,,---,0.00,VWS V14.01,2014-01-01 08:40:00,
2014-01-01 02:45:00,31.5,28.6,30.26,NE,52,0.0,0.0,89,0.00,,---,0.00,VWS V14.01,2014-01-01 08:45:00,
2014-01-01 02:50:00,31.5,28.6,30.26,NE,52,0.0,0.0,89,0.00,,---,0.00,VWS V14.01,2014-01-01 08:50:00,
2014-01-01 02:55:00,31.6,28.7,30.26,NE,52,0.0,0.0,89,0.00,,---,0.00,VWS V14.01,2014-01-01 08:55:00,
2014-01-01 03:00:00,31.6,28.7,30.26,NE,52,0.0,0.0,89,0.00,,---,0.00,VWS V14.01,2014-01-01 09:00:00,
2014-01-01 03:05:00,31.6,28.7,30.26,NE,52,0.0,0.0,89,0.00,,---,0.00,VWS V14.01,2014-01-01 09:05:00,
2014-01-01 03:10:00,31.6,28.7,30.26,NE,52,0.0,0.0,89,0.00,,---,0.00,VWS V14.01,2014-01-01 09:10:00,
2014-01-01 03:15:00,31.7,28.8,30.26,NE,52,0.0,0.0,89,0.00,,---,0.00,VWS V14.01,2014-01-01 09:15:00,
2014-01-01 03:20:00,31.7,28.8,30.26,NE,52,0.0,0.0,89,0.00,,---,0.00,VWS V14.01,2014-01-01 09:20:00,
2014-01-01 03:25:00,31.7,28.8,30.26,NE,52,0.0,0.0,89,0.00,,---,0.00,VWS V14.01,2014-01-01 09:25:00,
2014-01-01 03:30:00,31.8,28.9,30.26,NE,52,0.0,0.0,89,0.00,,---,0.00,VWS V14.01,2014-01-01 09:30:00,
2014-01-01 03:35:00,31.8,28.9,30.26,NE,52,0.0,0.0,89,0.00,,---,0.00,VWS V14.01,2014-01-01 09:35:00,
2014-01-01 03:40:00,31.9,29.0,30.26,NE,52,0.0,0.0,89,0.00,,---,0.00,VWS V14.01,2014-01-01 09:40:00,
2014-01-01 03:45:00,31.9,29.0,30.25,NE,52,0.0,0.0,89,0.00,,---,0.00,VWS V14.01,2014-01-01 09:45:00,
2014-01-01 03:50:00,31.9,29.0,30.25,NE,52,0.0,0.0,89,0.00,,---,0.00,VWS V14.01,2014-01-01 09:50:00,
2014-01-01 03:55:00,31.9,29.0,30.25,NE,52,0.0,0.0,89,0.00,,---,0.00,VWS V14.01,2014-01-01 09:55:00,
2014-01-01 04:00:00,32.0,29.1,30.25,NE,52,0.0,0.0,89,0.00,,---,0.00,VWS V14.01,2014-01-01 10:00:00,
2014-01-01 04:05:00,32.1,29.2,30.25,NE,52,0.0,0.0,89,0.00,,---,0.00,VWS V14.01,2014-01-01 10:05:00,
2014-01-01 04:10:00,32.3,29.7,30.25,NE,52,0.0,0.0,90,0.00,,---,0.00,VWS V14.01,2014-01-01 10:10:00,
2014-01-01 04:15:00,32.3,29.7,30.25,NE,52,0.0,0.0,90,0.00,,---,0.00,VWS V14.01,2014-01-01 10:15:00,
2014-01-01 04:20:00,32.3,29.7,30.25,NE,52,0.0,0.0,90,0.00,,---,0.00,VWS V14.01,2014-01-01 10:20:00,
2014-01-01 04:25:00,32.3,29.7,30.25,NE,52,0.0,0.0,90,0.00,,---,0.00,VWS V14.01,2014-01-01 10:25:00,
2014-01-01 04:30:00,32.3,29.7,30.24,NE,52,0.0,0.0,90,0.00,,---,0.00,VWS V14.01,2014-01-01 10:30:00,
2014-01-01 04:35:00,32.3,29.7,30.24,NE,52,0.0,0.0,90,0.00,,---,0.00,VWS V14.01,2014-01-01 10:35:00,
2014-01-01 04:40:00,32.3,29.7,30.24,NE,52,0.0,0.0,90,0.00,,---,0.00,VWS V14.01,2014-01-01 10:40:00,
2014-01-01 04:45:00,32.2,29.6,30.25,NE,52,0.0,0.0,90,0.00,,---,0.00,VWS V14.01,2014-01-01 10:45:00,
2014-01-01 04:50:00,32.1,29.5,30.25,NE,52,0.0,0.0,90,0.00,,---,0.00,VWS V14.01,2014-01-01 10:50:00,
2014-01-01 04:55:00,32.2,29.6,30.25,NE,52,0.0,0.0,90,0.00,,---,0.00,VWS V14.01,2014-01-01 10:55:00,
2014-01-01 05:00:00,32.2,29.6,30.24,NE,52,0.0,0.0,90,0.00,,---,0.00,VWS V14.01,2014-01-01 11:00:00,
2014-01-01 05:05:00,32.2,29.6,30.24,NE,52,0.0,0.0,90,0.00,,---,0.00,VWS V14.01,2014-01-01 11:05:00,
2014-01-01 05:10:00,32.2,29.6,30.24,NE,52,0.0,0.0,90,0.00,,---,0.00,VWS V14.01,2014-01-01 11:10:00,
2014-01-01 05:15:00,32.1,29.5,30.24,NE,52,0.0,0.0,90,0.00,,---,0.00,VWS V14.01,2014-01-01 11:15:00,
2014-01-01 05:20:00,32.1,29.5,30.24,NE,52,0.0,0.0,90,0.00,,---,0.00,VWS V14.01,2014-01-01 11:20:00,
2014-01-01 05:25:00,32.1,29.5,30.24,NE,52,0.0,0.0,90,0.00,,---,0.00,VWS V14.01,2014-01-01 11:25:00,
2014-01-01 05:30:00,32.2,29.6,30.22,NE,52,1.0,1.0,90,0.00,,---,0.00,VWS V14.01,2014-01-01 11:30:00,
2014-01-01 05:35:00,32.1,29.5,30.22,NE,52,0.0,0.0,90,0.00,,---,0.00,VWS V14.01,2014-01-01 11:35:00,
2014-01-01 05:40:00,32.0,29.4,30.22,NE,52,0.0,0.0,90,0.00,,---,0.00,VWS V14.01,2014-01-01 11:40:00,
2014-01-01 05:45:00,31.8,29.2,30.22,NE,52,0.0,0.0,90,0.00,,---,0.00,VWS V14.01,2014-01-01 11:45:00,
2014-01-01 05:50:00,31.7,29.1,30.22,NE,52,0.0,0.0,90,0.00,,---,0.00,VWS V14.01,2014-01-01 11:50:00,
2014-01-01 05:55:00,31.6,29.0,30.22,NE,52,0.0,0.0,90,0.00,,---,0.00,VWS V14.01,2014-01-01 11:55:00,
2014-01-01 06:00:00,31.4,28.8,30.23,NE,52,0.0,0.0,90,0.00,,---,0.00,VWS V14.01,2014-01-01 12:00:00,
2014-01-01 06:05:00,31.2,28.6,30.23,NE,52,0.0,0.0,90,0.00,,---,0.00,VWS V14.01,2014-01-01 12:05:00,
2014-01-01 06:10:00,31.0,28.4,30.23,NE,52,0.0,0.0,90,0.00,,---,0.00,VWS V14.01,2014-01-01 12:10:00,
2014-01-01 06:15:00,31.0,28.4,30.23,NE,52,0.0,0.0,90,0.00,,---,0.00,VWS V14.01,2014-01-01 12:15:00,
2014-01-01 06:20:00,31.0,28.4,30.23,NE,52,0.0,0.0,90,0.00,,---,0.00,VWS V14.01,2014-01-01 12:20:00,
2014-01-01 06:25:00,30.8,28.2,30.23,NE,52,0.0,0.0,90,0.00,,---,0.00,VWS V14.01,2014-01-01 12:25:00,
2014-01-01 06:30:00,30.6,28.0,30.22,NE,52,0.0,0.0,90,0.00,,---,0.00,VWS V14.01,2014-01-01 12:30:00,
2014-01-01 06:35:00,30.4,27.8,30.22,NE,52,0.0,0.0,90,0.00,,---,0.00,VWS V14.01,2014-01-01 12:35:00,
2014-01-01 06:40:00,30.3,27.7,30.22,NE,52,0.0,0.0,90,0.00,,---,0.00,VWS V14.01,2014-01-01 12:40:00,
2014-01-01 06:45:00,30.3,27.7,30.23,NE,52,0.0,0.0,90,0.00,,---,0.00,VWS V14.01,2014-01-01 12:45:00,
2014-01-01 06:50:00,30.3,27.7,30.23,NE,52,0.0,0.0,90,0.00,,---,0.00,VWS V14.01,2014-01-01 12:50:00,
2014-01-01 06:55:00,30.2,27.6,30.23,NE,52,0.0,0.0,90,0.00,,---,0.00,VWS V14.01,2014-01-01 12:55:00,
2014-01-01 07:00:00,30.1,27.5,30.23,NE,52,0.0,0.0,90,0.00,,---,0.00,VWS V14.01,2014-01-01 13:00:00,
2014-01-01 07:05:00,30.0,27.4,30.23,NE,52,0.0,0.0,90,0.00,,---,0.00,VWS V14.01,2014-01-01 13:05:00,
2014-01-01 07:10:00,29.8,27.2,30.23,NE,52,0.0,0.0,90,0.00,,---,0.00,VWS V14.01,2014-01-01 13:10:00,
2014-01-01 07:15:00,29.7,27.1,30.23,NE,52,0.0,0.0,90,0.00,,---,0.00,VWS V14.01,2014-01-01 13:15:00,
2014-01-01 07:19:00,29.7,27.1,30.23,NE,52,0.0,0.0,90,0.00,,---,0.00,VWS V14.01,2014-01-01 13:19:00,
2014-01-01 07:24:00,29.6,27.0,30.23,NNE,18,0.0,0.0,90,0.00,,---,0.00,VWS V14.01,2014-01-01 13:24:00,
2014-01-01 07:29:00,29.6,27.0,30.24,NNE,19,0.0,0.0,90,0.00,,---,0.00,VWS V14.01,2014-01-01 13:29:00,
2014-01-01 07:34:00,29.7,27.1,30.24,NNE,19,0.0,0.0,90,0.00,,---,0.00,VWS V14.01,2014-01-01 13:34:00,
2014-01-01 07:39:00,29.9,27.3,30.24,NNE,19,0.0,0.0,90,0.00,,---,0.00,VWS V14.01,2014-01-01 13:39:00,
2014-01-01 07:44:00,30.0,27.4,30.24,NNE,19,0.0,0.0,90,0.00,,---,0.00,VWS V14.01,2014-01-01 13:44:00,
2014-01-01 07:49:00,30.2,27.6,30.24,North,9,0.0,0.0,90,0.00,,---,0.00,VWS V14.01,2014-01-01 13:49:00,
2014-01-01 07:54:00,30.6,28.0,30.24,SSW,201,0.0,0.0,90,0.00,,---,0.00,VWS V14.01,2014-01-01 13:54:00,
2014-01-01 07:59:00,30.8,28.2,30.24,SW,236,0.0,0.0,90,0.00,,---,0.00,VWS V14.01,2014-01-01 13:59:00,
2014-01-01 08:04:00,31.4,28.8,30.24,SW,236,0.0,0.0,90,0.00,,---,0.00,VWS V14.01,2014-01-01 14:04:00,
2014-01-01 08:09:00,32.0,29.4,30.24,WSW,237,0.0,0.0,90,0.00,,---,0.00,VWS V14.01,2014-01-01 14:09:00,
2014-01-01 08:14:00,32.8,30.2,30.24,WSW,242,0.0,0.0,90,0.00,,---,0.00,VWS V14.01,2014-01-01 14:14:00,
2014-01-01 08:19:00,33.7,31.1,30.24,WSW,242,0.0,0.0,90,0.00,,---,0.00,VWS V14.01,2014-01-01 14:19:00,
2014-01-01 08:24:00,34.9,32.5,30.24,WSW,242,0.0,0.0,91,0.00,,---,0.00,VWS V14.01,2014-01-01 14:24:00,
2014-01-01 08:29:00,35.3,32.9,30.24,WSW,242,0.0,0.0,91,0.00,,---,0.00,VWS V14.01,2014-01-01 14:29:00,
2014-01-01 08:34:00,36.1,33.7,30.24,WSW,242,0.0,0.0,91,0.00,,---,0.00,VWS V14.01,2014-01-01 14:34:00,
2014-01-01 08:39:00,36.5,33.8,30.24,WSW,242,0.0,0.0,90,0.00,,---,0.00,VWS V14.01,2014-01-01 14:39:00,
2014-01-01 08:44:00,37.7,35.0,30.24,West,270,0.0,0.0,90,0.00,,---,0.00,VWS V14.01,2014-01-01 14:44:00,
2014-01-01 08:49:00,38.4,35.7,30.24,West,270,0.0,0.0,90,0.00,,---,0.00,VWS V14.01,2014-01-01 14:49:00,
2014-01-01 08:54:00,39.2,36.0,30.24,SW,221,2.0,2.0,88,0.00,,---,0.00,VWS V14.01,2014-01-01 14:54:00,
2014-01-01 08:59:00,39.6,36.1,30.24,SSW,199,2.0,2.0,87,0.00,,---,0.00,VWS V14.01,2014-01-01 14:59:00,
2014-01-01 09:04:00,40.3,36.2,30.24,SSE,163,0.0,4.0,85,0.00,,---,0.00,VWS V14.01,2014-01-01 15:04:00,
2014-01-01 09:09:00,40.5,36.3,30.24,South,170,1.0,3.0,85,0.00,,---,0.00,VWS V14.01,2014-01-01 15:09:00,
2014-01-01 09:14:00,41.3,36.8,30.24,South,180,0.0,2.0,84,0.00,,---,0.00,VWS V14.01,2014-01-01 15:14:00,
2014-01-01 09:19:00,41.3,36.2,30.24,South,176,2.0,5.0,82,0.00,,---,0.00,VWS V14.01,2014-01-01 15:19:00,
2014-01-01 09:24:00,41.6,36.8,30.24,SSE,168,2.0,3.0,83,0.00,,---,0.00,VWS V14.01,2014-01-01 15:24:00,
2014-01-01 09:29:00,42.7,37.9,30.24,South,173,4.0,7.0,83,0.00,,---,0.00,VWS V14.01,2014-01-01 15:29:00,
2014-01-01 09:34:00,42.7,37.3,30.24,SSE,168,3.0,4.0,81,0.00,,---,0.00,VWS V14.01,2014-01-01 15:34:00,
2014-01-01 09:39:00,43.4,38.0,30.24,South,170,4.0,4.0,81,0.00,,---,0.00,VWS V14.01,2014-01-01 15:39:00,
2014-01-01 09:44:00,44.4,38.3,30.24,SSW,192,5.0,5.0,79,0.00,,---,0.00,VWS V14.01,2014-01-01 15:44:00,
2014-01-01 09:49:00,45.1,39.0,30.24,South,188,2.0,8.0,79,0.00,,---,0.00,VWS V14.01,2014-01-01 15:49:00,
2014-01-01 09:54:00,46.0,39.5,30.24,SSE,168,2.0,3.0,78,0.00,,---,0.00,VWS V14.01,2014-01-01 15:54:00,
2014-01-01 09:59:00,46.9,39.7,30.24,WSW,239,3.0,4.0,76,0.00,,---,0.00,VWS V14.01,2014-01-01 15:59:00,
2014-01-01 10:04:00,47.0,39.8,30.23,SW,216,6.0,7.0,76,0.00,,---,0.00,VWS V14.01,2014-01-01 16:04:00,
2014-01-01 10:09:00,47.0,39.8,30.23,South,180,0.0,5.0,76,0.00,,---,0.00,VWS V14.01,2014-01-01 16:09:00,
2014-01-01 10:14:00,47.7,40.2,30.23,South,189,0.0,5.0,75,0.00,,---,0.00,VWS V14.01,2014-01-01 16:14:00,
2014-01-01 10:19:00,48.1,40.6,30.22,SW,232,9.0,9.0,75,0.00,,---,0.00,VWS V14.01,2014-01-01 16:19:00,
2014-01-01 10:24:00,48.3,40.4,30.22,SSW,199,1.0,5.0,74,0.00,,---,0.00,VWS V14.01,2014-01-01 16:24:00,
2014-01-01 10:29:00,48.4,40.5,30.22,SSW,202,2.0,4.0,74,0.00,,---,0.00,VWS V14.01,2014-01-01 16:29:00,
2014-01-01 10:34:00,49.6,41.7,30.21,SSW,192,0.0,3.0,74,0.00,,---,0.00,VWS V14.01,2014-01-01 16:34:00,
2014-01-01 10:39:00,50.3,41.3,30.21,South,188,0.0,2.0,71,0.00,,---,0.00,VWS V14.01,2014-01-01 16:39:00,
2014-01-01 10:44:00,51.4,42.3,30.21,South,183,0.0,3.0,71,0.00,,---,0.00,VWS V14.01,2014-01-01 16:44:00,
2014-01-01 10:49:00,51.1,41.7,30.21,SSW,208,0.0,5.0,70,0.00,,---,0.00,VWS V14.01,2014-01-01 16:49:00,
2014-01-01 10:54:00,51.4,41.6,30.21,WSW,246,2.0,6.0,69,0.00,,---,0.00,VWS V14.01,2014-01-01 16:54:00,
2014-01-01 10:59:00,51.3,41.5,30.21,WSW,243,2.0,4.0,69,0.00,,---,0.00,VWS V14.01,2014-01-01 16:59:00,
2014-01-01 11:04:00,52.4,42.5,30.19,SSE,152,4.0,5.0,69,0.00,,---,0.00,VWS V14.01,2014-01-01 17:04:00,
2014-01-01 11:09:00,52.7,42.1,30.19,SSW,192,2.0,2.0,67,0.00,,---,0.00,VWS V14.01,2014-01-01 17:09:00,
2014-01-01 11:14:00,53.3,42.6,30.19,SE,146,2.0,3.0,67,0.00,,---,0.00,VWS V14.01,2014-01-01 17:14:00,
2014-01-01 11:19:00,53.1,42.1,30.19,South,171,2.0,3.0,66,0.00,,---,0.00,VWS V14.01,2014-01-01 17:19:00,
2014-01-01 11:24:00,53.2,42.9,30.19,South,169,1.0,4.0,68,0.00,,---,0.00,VWS V14.01,2014-01-01 17:24:00,
2014-01-01 11:29:00,54.0,42.9,30.19,SSE,162,3.0,4.0,66,0.00,,---,0.00,VWS V14.01,2014-01-01 17:29:00,
2014-01-01 11:34:00,55.0,43.1,30.18,SE,141,1.0,3.0,64,0.00,,---,0.00,VWS V14.01,2014-01-01 17:34:00,
2014-01-01 11:39:00,54.7,42.8,30.18,SE,144,0.0,5.0,64,0.00,,---,0.00,VWS V14.01,2014-01-01 17:39:00,
2014-01-01 11:44:00,54.8,42.5,30.18,SE,141,4.0,4.0,63,0.00,,---,0.00,VWS V14.01,2014-01-01 17:44:00,
2014-01-01 11:49:00,55.3,42.9,30.17,SW,223,2.0,4.0,63,0.00,,---,0.00,VWS V14.01,2014-01-01 17:49:00,
2014-01-01 11:54:00,55.0,42.7,30.17,SSW,200,2.0,2.0,63,0.00,,---,0.00,VWS V14.01,2014-01-01 17:54:00,
2014-01-01 11:59:00,54.9,43.4,30.17,SSE,165,0.0,3.0,65,0.00,,---,0.00,VWS V14.01,2014-01-01 17:59:00,
2014-01-01 12:04:00,55.6,43.6,30.16,SSW,207,6.0,6.0,64,0.00,,---,0.00,VWS V14.01,2014-01-01 18:04:00,
2014-01-01 12:09:00,55.3,43.3,30.16,WSW,240,4.0,4.0,64,0.00,,---,0.00,VWS V14.01,2014-01-01 18:09:00,
2014-01-01 12:14:00,55.2,43.7,30.16,South,169,4.0,6.0,65,0.00,,---,0.00,VWS V14.01,2014-01-01 18:14:00,
2014-01-01 12:19:00,54.8,43.3,30.15,SSW,194,0.0,3.0,65,0.00,,---,0.00,VWS V14.01,2014-01-01 18:19:00,
2014-01-01 12:24:00,54.9,43.0,30.15,South,188,8.0,8.0,64,0.00,,---,0.00,VWS V14.01,2014-01-01 18:24:00,
2014-01-01 12:29:00,55.2,43.2,30.15,SW,226,2.0,7.0,64,0.00,,---,0.00,VWS V14.01,2014-01-01 18:29:00,
2014-01-01 12:34:00,56.0,43.6,30.13,SSE,164,3.0,7.0,63,0.00,,---,0.00,VWS V14.01,2014-01-01 18:34:00,
2014-01-01 12:39:00,56.5,43.7,30.13,SSW,196,1.0,5.0,62,0.00,,---,0.00,VWS V14.01,2014-01-01 18:39:00,
2014-01-01 12:44:00,56.7,43.8,30.13,SW,234,4.0,7.0,62,0.00,,---,0.00,VWS V14.01,2014-01-01 18:44:00,
2014-01-01 12:49:00,57.5,44.2,30.11,SSW,206,2.0,3.0,61,0.00,,---,0.00,VWS V14.01,2014-01-01 18:49:00,
2014-01-01 12:54:00,58.9,44.6,30.11,SW,223,0.0,5.0,59,0.00,,---,0.00,VWS V14.01,2014-01-01 18:54:00,
2014-01-01 12:59:00,58.3,43.2,30.11,South,178,3.0,3.0,57,0.00,,---,0.00,VWS V14.01,2014-01-01 18:59:00,
2014-01-01 13:04:00,58.0,43.8,30.10,South,179,0.0,0.0,59,0.00,,---,0.00,VWS V14.01,2014-01-01 19:04:00,
2014-01-01 13:09:00,58.5,43.8,30.10,SSE,155,0.0,2.0,58,0.00,,---,0.00,VWS V14.01,2014-01-01 19:09:00,
2014-01-01 13:14:00,58.9,44.2,30.10,South,175,2.0,6.0,58,0.00,,---,0.00,VWS V14.01,2014-01-01 19:14:00,
2014-01-01 13:19:00,59.2,43.5,30.08,SSW,208,4.0,4.0,56,0.00,,---,0.00,VWS V14.01,2014-01-01 19:19:00,
2014-01-01 13:24:00,59.6,43.9,30.08,WSW,250,4.0,6.0,56,0.00,,---,0.00,VWS V14.01,2014-01-01 19:24:00,
2014-01-01 13:29:00,60.5,43.3,30.08,SE,136,3.0,5.0,53,0.00,,---,0.00,VWS V14.01,2014-01-01 19:29:00,
2014-01-01 13:34:00,60.3,43.1,30.08,West,259,4.0,4.0,53,0.00,,---,0.00,VWS V14.01,2014-01-01 19:34:00,
2014-01-01 13:39:00,60.0,43.8,30.08,South,176,5.0,5.0,55,0.00,,---,0.00,VWS V14.01,2014-01-01 19:39:00,
2014-01-01 13:44:00,60.5,42.8,30.08,SW,216,9.0,12.0,52,0.00,,---,0.00,VWS V14.01,2014-01-01 19:44:00,
2014-01-01 13:49:00,60.4,43.2,30.07,SW,234,2.0,9.0,53,0.00,,---,0.00,VWS V14.01,2014-01-01 19:49:00,
2014-01-01 13:54:00,60.9,44.6,30.07,South,184,5.0,7.0,55,0.00,,---,0.00,VWS V14.01,2014-01-01 19:54:00,
2014-01-01 13:59:00,60.0,44.7,30.07,SSE,151,2.0,2.0,57,0.00,,---,0.00,VWS V14.01,2014-01-01 19:59:00,
2014-01-01 14:04:00,59.9,44.7,30.07,South,175,5.0,6.0,57,0.00,,---,0.00,VWS V14.01,2014-01-01 20:04:00,
2014-01-01 14:09:00,59.7,44.9,30.07,SE,128,5.0,6.0,58,0.00,,---,0.00,VWS V14.01,2014-01-01 20:09:00,
2014-01-01 14:14:00,59.7,44.9,30.07,SE,134,4.0,5.0,58,0.00,,---,0.00,VWS V14.01,2014-01-01 20:14:00,
2014-01-01 14:19:00,59.8,45.0,30.06,South,183,2.0,2.0,58,0.00,,---,0.00,VWS V14.01,2014-01-01 20:19:00,
2014-01-01 14:24:00,60.1,45.3,30.06,South,185,5.0,5.0,58,0.00,,---,0.00,VWS V14.01,2014-01-01 20:24:00,
2014-01-01 14:29:00,60.0,44.7,30.06,SW,215,2.0,3.0,57,0.00,,---,0.00,VWS V14.01,2014-01-01 20:29:00,
2014-01-01 14:34:00,59.7,44.9,30.06,SSW,201,6.0,6.0,58,0.00,,---,0.00,VWS V14.01,2014-01-01 20:34:00,
2014-01-01 14:39:00,59.7,45.4,30.06,South,184,4.0,4.0,59,0.00,,---,0.00,VWS V14.01,2014-01-01 20:39:00,
2014-01-01 14:44:00,59.5,44.7,30.06,SSE,158,5.0,6.0,58,0.00,,---,0.00,VWS V14.01,2014-01-01 20:44:00,
2014-01-01 14:49:00,59.3,45.0,30.06,South,179,5.0,5.0,59,0.00,,---,0.00,VWS V14.01,2014-01-01 20:49:00,
2014-01-01 14:54:00,59.3,45.0,30.06,SSW,200,5.0,5.0,59,0.00,,---,0.00,VWS V14.01,2014-01-01 20:54:00,
2014-01-01 14:59:00,59.6,44.8,30.06,SSE,157,0.0,0.0,58,0.00,,---,0.00,VWS V14.01,2014-01-01 20:59:00,
2014-01-01 15:04:00,59.9,45.1,30.05,South,182,5.0,5.0,58,0.00,,---,0.00,VWS V14.01,2014-01-01 21:04:00,
2014-01-01 15:09:00,59.9,45.5,30.05,SE,142,4.0,4.0,59,0.00,,---,0.00,VWS V14.01,2014-01-01 21:09:00,
2014-01-01 15:14:00,59.8,45.0,30.05,SSW,194,4.0,6.0,58,0.00,,---,0.00,VWS V14.01,2014-01-01 21:14:00,
2014-01-01 15:19:00,59.8,45.5,30.04,South,184,0.0,3.0,59,0.00,,---,0.00,VWS V14.01,2014-01-01 21:19:00,
2014-01-01 15:24:00,60.0,45.7,30.04,SSE,149,0.0,3.0,59,0.00,,---,0.00,VWS V14.01,2014-01-01 21:24:00,
2014-01-01 15:29:00,60.1,45.3,30.04,SE,139,3.0,11.0,58,0.00,,---,0.00,VWS V14.01,2014-01-01 21:29:00,
2014-01-01 15:34:00,60.0,45.2,30.04,South,170,2.0,3.0,58,0.00,,---,0.00,VWS V14.01,2014-01-01 21:34:00,
2014-01-01 15:39:00,60.1,45.3,30.04,SSW,196,1.0,5.0,58,0.00,,---,0.00,VWS V14.01,2014-01-01 21:39:00,
2014-01-01 15:44:00,60.3,45.5,30.04,South,181,7.0,7.0,58,0.00,,---,0.00,VWS V14.01,2014-01-01 21:44:00,
2014-01-01 15:49:00,60.3,45.5,30.04,South,175,6.0,6.0,58,0.00,,---,0.00,VWS V14.01,2014-01-01 21:49:00,
2014-01-01 15:54:00,60.2,45.4,30.04,ESE,121,6.0,7.0,58,0.00,,---,0.00,VWS V14.01,2014-01-01 21:54:00,
2014-01-01 15:59:00,60.2,45.8,30.04,South,179,2.0,2.0,59,0.00,,---,0.00,VWS V14.01,2014-01-01 21:59:00,
2014-01-01 16:04:00,60.2,45.8,30.04,SSE,165,1.0,5.0,59,0.00,,---,0.00,VWS V14.01,2014-01-01 22:04:00,
2014-01-01 16:09:00,60.2,45.8,30.04,SSE,157,0.0,0.0,59,0.00,,---,0.00,VWS V14.01,2014-01-01 22:09:00,
2014-01-01 16:14:00,60.2,46.3,30.04,SSE,161,3.0,3.0,60,0.00,,---,0.00,VWS V14.01,2014-01-01 22:14:00,
2014-01-01 16:19:00,60.1,46.2,30.04,SSE,150,1.0,3.0,60,0.00,,---,0.00,VWS V14.01,2014-01-01 22:19:00,
2014-01-01 16:24:00,59.9,46.0,30.04,SSE,148,7.0,7.0,60,0.00,,---,0.00,VWS V14.01,2014-01-01 22:24:00,
2014-01-01 16:29:00,59.8,45.9,30.04,South,171,3.0,5.0,60,0.00,,---,0.00,VWS V14.01,2014-01-01 22:29:00,
2014-01-01 16:34:00,59.6,45.7,30.04,SSE,151,3.0,3.0,60,0.00,,---,0.00,VWS V14.01,2014-01-01 22:34:00,
2014-01-01 16:39:00,59.4,46.0,30.04,South,172,5.0,5.0,61,0.00,,---,0.00,VWS V14.01,2014-01-01 22:39:00,
2014-01-01 16:44:00,59.2,45.8,30.04,South,175,4.0,6.0,61,0.00,,---,0.00,VWS V14.01,2014-01-01 22:44:00,
2014-01-01 16:49:00,59.0,46.0,30.04,South,182,5.0,5.0,62,0.00,,---,0.00,VWS V14.01,2014-01-01 22:49:00,
2014-01-01 16:54:00,58.8,46.2,30.04,SSE,167,1.0,3.0,63,0.00,,---,0.00,VWS V14.01,2014-01-01 22:54:00,
2014-01-01 16:59:00,58.6,46.1,30.04,SSE,151,0.0,0.0,63,0.00,,---,0.00,VWS V14.01,2014-01-01 22:59:00,
2014-01-01 17:04:00,58.3,46.2,30.04,South,171,1.0,1.0,64,0.00,,---,0.00,VWS V14.01,2014-01-01 23:04:00,
2014-01-01 17:08:00,58.1,46.0,30.04,SSE,157,3.0,3.0,64,0.00,,---,0.00,VWS V14.01,2014-01-01 23:08:00,
2014-01-01 17:13:00,57.9,46.2,30.04,SSE,162,1.0,1.0,65,0.00,,---,0.00,VWS V14.01,2014-01-01 23:13:00,
2014-01-01 17:18:00,57.7,46.4,30.04,South,175,3.0,4.0,66,0.00,,---,0.00,VWS V14.01,2014-01-01 23:18:00,
2014-01-01 17:23:00,57.5,46.6,30.04,South,190,9.0,9.0,67,0.00,,---,0.00,VWS V14.01,2014-01-01 23:23:00,
2014-01-01 17:28:00,57.3,46.5,30.04,SE,137,5.0,5.0,67,0.00,,---,0.00,VWS V14.01,2014-01-01 23:28:00,
2014-01-01 17:33:00,57.2,46.4,30.03,South,173,1.0,3.0,67,0.00,,---,0.00,VWS V14.01,2014-01-01 23:33:00,
2014-01-01 17:38:00,57.0,46.6,30.03,SSE,166,0.0,0.0,68,0.00,,---,0.00,VWS V14.01,2014-01-01 23:38:00,
2014-01-01 17:43:00,56.8,46.4,30.03,SSW,205,2.0,3.0,68,0.00,,---,0.00,VWS V14.01,2014-01-01 23:43:00,
2014-01-01 17:48:00,56.7,46.7,30.03,South,181,0.0,0.0,69,0.00,,---,0.00,VWS V14.01,2014-01-01 23:48:00,
2014-01-01 17:53:00,56.6,46.6,30.03,SE,146,2.0,2.0,69,0.00,,---,0.00,VWS V14.01,2014-01-01 23:53:00,
2014-01-01 17:58:00,56.6,46.6,30.03,South,182,2.0,2.0,69,0.00,,---,0.00,VWS V14.01,2014-01-01 23:58:00,
2014-01-01 18:03:00,56.6,46.9,30.03,SSW,196,0.0,0.0,70,0.00,,---,0.00,VWS V14.01,2014-01-02 00:03:00,
2014-01-01 18:08:00,56.6,46.9,30.03,SSW,195,0.0,1.0,70,0.00,,---,0.00,VWS V14.01,2014-01-02 00:08:00,
2014-01-01 18:13:00,56.5,46.8,30.03,South,182,5.0,5.0,70,0.00,,---,0.00,VWS V14.01,2014-01-02 00:13:00,
2014-01-01 18:18:00,56.5,46.8,30.03,South,180,2.0,4.0,70,0.00,,---,0.00,VWS V14.01,2014-01-02 00:18:00,
2014-01-01 18:23:00,56.4,47.1,30.03,South,170,3.0,3.0,71,0.00,,---,0.00,VWS V14.01,2014-01-02 00:23:00,
2014-01-01 18:28:00,56.4,47.1,30.03,SSE,163,3.0,5.0,71,0.00,,---,0.00,VWS V14.01,2014-01-02 00:28:00,
2014-01-01 18:33:00,56.3,47.0,30.03,South,182,0.0,0.0,71,0.00,,---,0.00,VWS V14.01,2014-01-02 00:33:00,
2014-01-01 18:38:00,56.2,46.9,30.03,South,177,1.0,6.0,71,0.00,,---,0.00,VWS V14.01,2014-01-02 00:38:00,
2014-01-01 18:43:00,56.1,47.2,30.03,South,184,0.0,4.0,72,0.00,,---,0.00,VWS V14.01,2014-01-02 00:43:00,
2014-01-01 18:48:00,55.9,47.0,30.02,SSE,165,0.0,6.0,72,0.00,,---,0.00,VWS V14.01,2014-01-02 00:48:00,
2014-01-01 18:53:00,55.8,46.9,30.02,South,170,1.0,4.0,72,0.00,,---,0.00,VWS V14.01,2014-01-02 00:53:00,
2014-01-01 18:58:00,55.7,47.2,30.02,SSW,194,1.0,9.0,73,0.00,,---,0.00,VWS V14.01,2014-01-02 00:58:00,
2014-01-01 19:03:00,55.5,47.0,30.02,SSE,162,0.0,0.0,73,0.00,,---,0.00,VWS V14.01,2014-01-02 01:03:00,
2014-01-01 19:08:00,55.3,47.2,30.02,SSE,163,2.0,4.0,74,0.00,,---,0.00,VWS V14.01,2014-01-02 01:08:00,
2014-01-01 19:13:00,55.1,47.0,30.02,SSE,163,4.0,4.0,74,0.00,,---,0.00,VWS V14.01,2014-01-02 01:13:00,
2014-01-01 19:18:00,55.1,47.3,30.01,SSE,160,0.0,6.0,75,0.00,,---,0.00,VWS V14.01,2014-01-02 01:18:00,
2014-01-01 19:23:00,55.1,47.3,30.01,SSE,160,2.0,4.0,75,0.00,,---,0.00,VWS V14.01,2014-01-02 01:23:00,
2014-01-01 19:28:00,55.0,47.2,30.01,SSE,165,4.0,4.0,75,0.00,,---,0.00,VWS V14.01,2014-01-02 01:28:00,
2014-01-01 19:33:00,55.0,47.2,30.02,SSE,168,0.0,5.0,75,0.00,,---,0.00,VWS V14.01,2014-01-02 01:33:00,
2014-01-01 19:38:00,55.0,47.2,30.02,South,172,3.0,3.0,75,0.00,,---,0.00,VWS V14.01,2014-01-02 01:38:00,
2014-01-01 19:43:00,54.9,47.1,30.02,SSE,163,2.0,3.0,75,0.00,,---,0.00,VWS V14.01,2014-01-02 01:43:00,
2014-01-01 19:48:00,54.8,47.4,30.02,South,184,2.0,4.0,76,0.00,,---,0.00,VWS V14.01,2014-01-02 01:48:00,
2014-01-01 19:53:00,54.8,47.4,30.02,SSW,207,2.0,6.0,76,0.00,,---,0.00,VWS V14.01,2014-01-02 01:53:00,
2014-01-01 19:58:00,54.9,47.5,30.02,South,174,0.0,1.0,76,0.00,,---,0.00,VWS V14.01,2014-01-02 01:58:00,
2014-01-01 20:03:00,54.9,47.5,30.03,SSW,206,3.0,5.0,76,0.00,,---,0.00,VWS V14.01,2014-01-02 02:03:00,
2014-01-01 20:08:00,54.9,47.5,30.03,South,188,0.0,2.0,76,0.00,,---,0.00,VWS V14.01,2014-01-02 02:08:00,
2014-01-01 20:13:00,55.0,47.6,30.03,South,180,9.0,9.0,76,0.00,,---,0.00,VWS V14.01,2014-01-02 02:13:00,
2014-01-01 20:18:00,55.0,47.6,30.02,SSW,196,5.0,5.0,76,0.00,,---,0.00,VWS V14.01,2014-01-02 02:18:00,
2014-01-01 20:23:00,55.1,47.7,30.02,South,184,10.0,10.0,76,0.00,,---,0.00,VWS V14.01,2014-01-02 02:23:00,
2014-01-01 20:28:00,55.1,47.7,30.02,South,190,5.0,5.0,76,0.00,,---,0.00,VWS V14.01,2014-01-02 02:28:00,
2014-01-01 20:33:00,55.0,47.9,30.02,South,183,0.0,3.0,77,0.00,,---,0.00,VWS V14.01,2014-01-02 02:33:00,
2014-01-01 20:38:00,54.9,47.8,30.02,SW,225,0.0,6.0,77,0.00,,---,0.00,VWS V14.01,2014-01-02 02:38:00,
2014-01-01 20:43:00,54.8,47.7,30.02,South,175,2.0,5.0,77,0.00,,---,0.00,VWS V14.01,2014-01-02 02:43:00,
2014-01-01 20:48:00,54.8,47.7,30.02,South,180,3.0,3.0,77,0.00,,---,0.00,VWS V14.01,2014-01-02 02:48:00,
2014-01-01 20:53:00,54.8,48.1,30.02,South,183,1.0,1.0,78,0.00,,---,0.00,VWS V14.01,2014-01-02 02:53:00,
2014-01-01 20:58:00,54.8,48.1,30.02,SSW,197,5.0,10.0,78,0.00,,---,0.00,VWS V14.01,2014-01-02 02:58:00,
2014-01-01 21:03:00,54.8,48.1,30.02,SSW,205,3.0,3.0,78,0.00,,---,0.00,VWS V14.01,2014-01-02 03:03:00,
2014-01-01 21:08:00,54.8,48.1,30.02,South,178,2.0,7.0,78,0.00,,---,0.00,VWS V14.01,2014-01-02 03:08:00,
2014-01-01 21:13:00,54.8,48.1,30.02,South,173,1.0,1.0,78,0.00,,---,0.00,VWS V14.01,2014-01-02 03:13:00,
2014-01-01 21:18:00,54.7,48.3,30.02,South,190,5.0,6.0,79,0.00,,---,0.00,VWS V14.01,2014-01-02 03:18:00,
2014-01-01 21:23:00,54.7,48.3,30.02,SSW,210,0.0,3.0,79,0.00,,---,0.00,VWS V14.01,2014-01-02 03:23:00,
2014-01-01 21:28:00,54.6,48.2,30.02,SSW,200,1.0,3.0,79,0.00,,---,0.00,VWS V14.01,2014-01-02 03:28:00,
2014-01-01 21:33:00,54.5,48.5,30.01,SSE,158,5.0,10.0,80,0.00,,---,0.00,VWS V14.01,2014-01-02 03:33:00,
2014-01-01 21:38:00,54.5,48.5,30.01,SW,223,3.0,5.0,80,0.00,,---,0.00,VWS V14.01,2014-01-02 03:38:00,
2014-01-01 21:43:00,54.5,48.5,30.01,South,181,0.0,4.0,80,0.00,,---,0.00,VWS V14.01,2014-01-02 03:43:00,
2014-01-01 21:48:00,54.5,48.5,30.01,SSW,209,4.0,5.0,80,0.00,,---,0.00,VWS V14.01,2014-01-02 03:48:00,
2014-01-01 21:53:00,54.6,48.6,30.01,SSW,192,2.0,5.0,80,0.00,,---,0.00,VWS V14.01,2014-01-02 03:53:00,
2014-01-01 21:58:00,54.6,48.9,30.01,SSW,199,5.0,5.0,81,0.00,,---,0.00,VWS V14.01,2014-01-02 03:58:00,
2014-01-01 22:03:00,54.7,49.0,30.02,SSW,203,4.0,4.0,81,0.00,,---,0.00,VWS V14.01,2014-01-02 04:03:00,
2014-01-01 22:08:00,54.8,49.1,30.02,South,182,0.0,5.0,81,0.00,,---,0.00,VWS V14.01,2014-01-02 04:08:00,
2014-01-01 22:13:00,54.8,49.1,30.02,SW,223,0.0,5.0,81,0.00,,---,0.00,VWS V14.01,2014-01-02 04:13:00,
2014-01-01 22:18:00,54.8,49.1,30.02,South,189,4.0,7.0,81,0.00,,---,0.00,VWS V14.01,2014-01-02 04:18:00,
2014-01-01 22:23:00,54.8,49.1,30.02,SSW,208,4.0,4.0,81,0.00,,---,0.00,VWS V14.01,2014-01-02 04:23:00,
2014-01-01 22:28:00,54.9,49.5,30.02,SW,214,7.0,7.0,82,0.00,,---,0.00,VWS V14.01,2014-01-02 04:28:00,
2014-01-01 22:33:00,54.9,49.5,30.02,SSW,194,5.0,5.0,82,0.00,,---,0.00,VWS V14.01,2014-01-02 04:33:00,
2014-01-01 22:38:00,55.0,49.6,30.02,SSW,195,7.0,7.0,82,0.00,,---,0.00,VWS V14.01,2014-01-02 04:38:00,
2014-01-01 22:43:00,55.1,49.7,30.02,SSW,197,2.0,10.0,82,0.00,,---,0.00,VWS V14.01,2014-01-02 04:43:00,
2014-01-01 22:48:00,55.2,49.8,30.02,SSW,208,3.0,6.0,82,0.00,,---,0.00,VWS V14.01,2014-01-02 04:48:00,
2014-01-01 22:53:00,55.3,49.9,30.02,South,170,0.0,1.0,82,0.00,,---,0.00,VWS V14.01,2014-01-02 04:53:00,
2014-01-01 22:58:00,55.3,49.9,30.02,WSW,238,1.0,1.0,82,0.00,,---,0.00,VWS V14.01,2014-01-02 04:58:00,
2014-01-01 23:01:00,55.3,50.2,30.02,SSW,193,0.0,3.0,83,0.00,,---,0.00,VWS V14.01,2014-01-02 05:01:00,
2014-01-01 23:06:00,55.3,50.2,30.02,SSW,212,5.0,5.0,83,0.00,,---,0.00,VWS V14.01,2014-01-02 05:06:00,
2014-01-01 23:11:00,55.3,50.2,30.02,SSW,198,4.0,4.0,83,0.00,,---,0.00,VWS V14.01,2014-01-02 05:11:00,
2014-01-01 23:16:00,55.3,50.2,30.00,SSW,197,10.0,10.0,83,0.00,,---,0.00,VWS V14.01,2014-01-02 05:16:00,
2014-01-01 23:21:00,55.4,50.3,30.00,SW,214,0.0,0.0,83,0.00,,---,0.00,VWS V14.01,2014-01-02 05:21:00,
2014-01-01 23:26:00,55.3,50.2,30.00,SSW,200,7.0,7.0,83,0.00,,---,0.00,VWS V14.01,2014-01-02 05:26:00,
2014-01-01 23:31:00,55.3,50.2,30.00,SSW,196,5.0,5.0,83,0.00,,---,0.00,VWS V14.01,2014-01-02 05:31:00,
2014-01-01 23:36:00,55.2,50.5,30.00,SSW,211,1.0,1.0,84,0.00,,---,0.00,VWS V14.01,2014-01-02 05:36:00,
2014-01-01 23:41:00,55.1,50.4,30.00,SW,221,3.0,7.0,84,0.00,,---,0.00,VWS V14.01,2014-01-02 05:41:00,
2014-01-01 23:46:00,55.1,50.4,29.99,South,186,3.0,6.0,84,0.00,,---,0.00,VWS V14.01,2014-01-02 05:46:00,
2014-01-01 23:51:00,55.1,50.7,29.99,SSW,204,0.0,4.0,85,0.00,,---,0.00,VWS V14.01,2014-01-02 05:51:00,
2014-01-01 23:56:00,55.1,50.7,29.99,SW,215,3.0,4.0,85,0.00,,---,0.00,VWS V14.01,2014-01-02 05:56:00,